createdAt,value
2019-01-19T00:00:00.293Z,27.9
2019-01-19T00:00:50.038Z,28.1
2019-01-19T00:01:40.733Z,28.3
2019-01-19T00:02:30.798Z,28.4
2019-01-19T00:03:20.981Z,28.6
2019-01-19T00:04:10.808Z,28.7
2019-01-19T00:05:00.588Z,28.8
2019-01-19T00:05:50.403Z,28.9
2019-01-19T00:06:40.453Z,29.1
2019-01-19T00:07:31.613Z,29.2
2019-01-19T00:08:21.328Z,29.3
2019-01-19T00:09:11.353Z,29.4
2019-01-19T00:10:01.672Z,29.5
2019-01-19T00:10:52.111Z,29.6
2019-01-19T00:11:41.547Z,29.4
2019-01-19T00:12:31.618Z,29.3
2019-01-19T00:13:22.480Z,29.2
2019-01-19T00:14:12.053Z,29
2019-01-19T00:15:02.362Z,28.9
2019-01-19T00:15:51.265Z,28.8
2019-01-19T00:16:41.578Z,28.6
2019-01-19T00:17:30.547Z,28.4
2019-01-19T00:18:22.612Z,28.3
2019-01-19T00:19:11.755Z,28.2
2019-01-19T00:20:03.150Z,28
2019-01-19T00:20:51.665Z,26.9
2019-01-19T00:21:42.517Z,26.3
2019-01-19T00:22:32.537Z,26.1
2019-01-19T00:23:22.652Z,26.3
2019-01-19T00:24:11.847Z,26.3
2019-01-19T00:25:02.748Z,26.5
2019-01-19T00:25:52.229Z,26.8
2019-01-19T00:26:41.770Z,27
2019-01-19T00:27:32.639Z,27.2
2019-01-19T00:28:21.033Z,27.4
2019-01-19T00:29:12.739Z,27.6
2019-01-19T00:30:52.621Z,28
2019-01-19T00:31:43.190Z,28.2
2019-01-19T00:32:32.697Z,28.3
2019-01-19T00:33:22.596Z,28.4
2019-01-19T00:34:13.423Z,28.6
2019-01-19T00:35:03.553Z,28.8
2019-01-19T00:35:52.920Z,28.8
2019-01-19T00:36:43.820Z,28.9
2019-01-19T00:37:32.798Z,29.1
2019-01-19T00:38:23.671Z,29.1
2019-01-19T00:39:13.161Z,29.3
2019-01-19T00:40:02.134Z,29.3
2019-01-19T00:40:53.541Z,29.4
2019-01-19T00:41:44.151Z,29.5
2019-01-19T00:42:34.177Z,29.6
2019-01-19T00:43:22.968Z,29.5
2019-01-19T00:44:12.346Z,29.4
2019-01-19T00:45:04.188Z,29.2
2019-01-19T00:45:54.158Z,29.1
2019-01-19T00:46:44.506Z,28.9
2019-01-19T00:47:34.253Z,28.8
2019-01-19T00:48:24.030Z,28.6
2019-01-19T00:49:13.813Z,28.5
2019-01-19T00:50:05.060Z,28.4
2019-01-19T00:50:53.653Z,28.2
2019-01-19T00:51:44.510Z,27.6
2019-01-19T00:52:34.868Z,26.6
2019-01-19T00:53:24.088Z,26.1
2019-01-19T00:54:14.265Z,26.1
2019-01-19T00:55:04.540Z,26.3
2019-01-19T00:55:54.242Z,26.3
2019-01-19T00:56:44.865Z,26.5
2019-01-19T00:57:34.995Z,26.8
2019-01-19T00:58:25.012Z,27
2019-01-19T00:59:15.309Z,27.2
2019-01-19T01:00:04.377Z,27.4
2019-01-19T01:00:53.810Z,27.6
2019-01-19T01:01:45.499Z,27.8
2019-01-19T01:02:35.030Z,27.9
2019-01-19T01:03:24.490Z,28.1
2019-01-19T01:04:14.807Z,28.3
2019-01-19T01:05:05.205Z,28.4
2019-01-19T01:05:54.207Z,28.5
2019-01-19T01:06:45.359Z,28.6
2019-01-19T01:07:35.928Z,28.7
2019-01-19T01:08:25.126Z,28.8
2019-01-19T01:09:15.165Z,28.9
2019-01-19T01:10:05.629Z,29
2019-01-19T01:10:55.567Z,29.1
2019-01-19T01:11:44.754Z,29.2
2019-01-19T01:12:35.704Z,29.3
2019-01-19T01:13:25.739Z,29.3
2019-01-19T01:14:16.615Z,29.4
2019-01-19T01:15:06.493Z,29.4
2019-01-19T01:15:55.906Z,29.6
2019-01-19T01:16:45.113Z,29.6
2019-01-19T01:17:36.281Z,29.3
2019-01-19T01:18:25.242Z,29.2
2019-01-19T01:19:15.877Z,28.5
2019-01-19T01:20:05.229Z,27.8
2019-01-19T01:20:55.544Z,26.8
2019-01-19T01:21:46.618Z,25.8
2019-01-19T01:22:35.111Z,25.3
2019-01-19T01:23:26.681Z,25.3
2019-01-19T01:24:16.016Z,25.8
2019-01-19T01:25:06.328Z,26.2
2019-01-19T01:25:56.291Z,26.6
2019-01-19T01:26:45.868Z,26.9
2019-01-19T01:27:36.299Z,27.1
2019-01-19T01:28:25.975Z,27.3
2019-01-19T01:29:16.598Z,27.5
2019-01-19T01:30:56.970Z,28
2019-01-19T01:31:46.775Z,28.1
2019-01-19T01:32:36.328Z,28.3
2019-01-19T01:33:26.981Z,28.4
2019-01-19T01:34:15.948Z,28.6
2019-01-19T01:35:06.859Z,28.8
2019-01-19T01:35:56.820Z,28.9
2019-01-19T01:36:47.112Z,29
2019-01-19T01:37:36.623Z,29.1
2019-01-19T01:38:26.995Z,29.2
2019-01-19T01:39:16.204Z,29.3
2019-01-19T01:40:06.032Z,29.4
2019-01-19T01:40:57.917Z,29.4
2019-01-19T01:41:47.503Z,29.5
2019-01-19T01:42:37.505Z,29.6
2019-01-19T01:43:27.955Z,29.4
2019-01-19T01:44:17.927Z,29.3
2019-01-19T01:45:07.717Z,29.1
2019-01-19T01:45:56.852Z,29.1
2019-01-19T01:46:47.999Z,28.9
2019-01-19T01:47:38.123Z,28.8
2019-01-19T01:48:28.407Z,28.6
2019-01-19T01:49:18.732Z,28.4
2019-01-19T01:50:08.519Z,28.3
2019-01-19T01:50:58.832Z,28.2
2019-01-19T01:51:48.079Z,28
2019-01-19T01:52:38.124Z,26.7
2019-01-19T01:53:28.249Z,26.1
2019-01-19T01:54:18.809Z,26.1
2019-01-19T01:55:08.594Z,26.2
2019-01-19T01:55:58.644Z,26.3
2019-01-19T01:56:48.689Z,26.5
2019-01-19T01:57:39.001Z,26.8
2019-01-19T01:58:28.804Z,27
2019-01-19T01:59:19.438Z,27.2
2019-01-19T02:00:09.927Z,27.4
2019-01-19T02:00:58.964Z,27.6
2019-01-19T02:02:39.386Z,27.9
2019-01-19T02:03:29.468Z,28.1
2019-01-19T02:04:19.775Z,28.3
2019-01-19T02:05:09.289Z,28.4
2019-01-19T02:05:59.576Z,28.6
2019-01-19T02:06:48.041Z,28.6
2019-01-19T02:07:39.414Z,28.8
2019-01-19T02:08:29.495Z,28.8
2019-01-19T02:09:19.821Z,28.9
2019-01-19T02:10:10.495Z,29
2019-01-19T02:10:59.093Z,29.1
2019-01-19T02:11:49.490Z,29.2
2019-01-19T02:12:38.928Z,29.3
2019-01-19T02:13:28.770Z,29.4
2019-01-19T02:14:19.055Z,29.4
2019-01-19T02:15:09.100Z,29.5
2019-01-19T02:16:00.280Z,29.6
2019-01-19T02:16:49.817Z,29.4
2019-01-19T02:17:40.429Z,29.3
2019-01-19T02:18:30.735Z,29.1
2019-01-19T02:19:19.714Z,29
2019-01-19T02:20:09.980Z,28.9
2019-01-19T02:21:00.347Z,28.7
2019-01-19T02:21:49.561Z,28.6
2019-01-19T02:22:40.437Z,28.4
2019-01-19T02:23:31.109Z,28.3
2019-01-19T02:24:20.322Z,28.1
2019-01-19T02:25:10.888Z,27.8
2019-01-19T02:26:00.199Z,26.6
2019-01-19T02:26:51.054Z,26.2
2019-01-19T02:27:40.502Z,26.2
2019-01-19T02:28:30.564Z,26.3
2019-01-19T02:29:21.477Z,26.4
2019-01-19T02:30:11.423Z,26.6
2019-01-19T02:31:01.663Z,26.8
2019-01-19T02:31:50.037Z,27.1
2019-01-19T02:32:40.961Z,27.2
2019-01-19T02:33:31.768Z,27.4
2019-01-19T02:34:20.987Z,27.6
2019-01-19T02:35:11.361Z,27.8
2019-01-19T02:36:00.598Z,27.9
2019-01-19T02:36:52.064Z,28.1
2019-01-19T02:37:42.073Z,28.2
2019-01-19T02:38:31.864Z,28.3
2019-01-19T02:39:21.946Z,28.4
2019-01-19T02:40:10.933Z,28.5
2019-01-19T02:41:01.248Z,28.6
2019-01-19T02:41:50.633Z,28.8
2019-01-19T02:42:41.959Z,28.8
2019-01-19T02:43:30.878Z,28.9
2019-01-19T02:44:21.006Z,28.9
2019-01-19T02:45:12.207Z,29.1
2019-01-19T02:46:02.665Z,29.1
2019-01-19T02:46:51.863Z,29.2
2019-01-19T02:47:42.249Z,29.3
2019-01-19T02:48:31.966Z,29.2
2019-01-19T02:49:22.585Z,29.1
2019-01-19T02:50:11.178Z,28.8
2019-01-19T02:51:01.958Z,28
2019-01-19T02:51:51.234Z,27.2
2019-01-19T02:52:42.364Z,26.3
2019-01-19T02:53:32.187Z,25.2
2019-01-19T02:54:21.336Z,24.7
2019-01-19T02:55:14.601Z,24.6
2019-01-19T02:56:02.425Z,25.1
2019-01-19T02:56:51.840Z,25.8
2019-01-19T02:57:42.700Z,26.3
2019-01-19T02:58:32.820Z,26.6
2019-01-19T02:59:22.513Z,26.8
2019-01-19T03:00:13.052Z,27
2019-01-19T03:01:02.914Z,27.3
2019-01-19T03:01:51.930Z,27.4
2019-01-19T03:02:43.527Z,27.7
2019-01-19T03:03:33.608Z,27.9
2019-01-19T03:04:23.237Z,28.1
2019-01-19T03:05:13.807Z,28.3
2019-01-19T03:08:45.912Z,28.8
2019-01-19T03:09:36.088Z,28.9
2019-01-19T03:10:26.615Z,29.1
2019-01-19T03:11:17.049Z,29.2
2019-01-19T03:12:06.215Z,29.3
2019-01-19T03:12:56.547Z,29.3
2019-01-19T03:13:46.612Z,29.4
2019-01-19T03:14:36.940Z,29.5
2019-01-19T03:15:27.299Z,29.6
2019-01-19T03:16:17.072Z,29.4
2019-01-19T03:17:07.179Z,29.3
2019-01-19T03:17:56.939Z,29.2
2019-01-19T03:18:47.063Z,29
2019-01-19T03:19:36.951Z,28.9
2019-01-19T03:20:27.576Z,28.8
2019-01-19T03:21:17.616Z,28.6
2019-01-19T03:22:07.096Z,28.4
2019-01-19T03:22:57.493Z,28.3
2019-01-19T03:23:48.096Z,28.1
2019-01-19T03:24:37.819Z,27.4
2019-01-19T03:25:26.939Z,26.5
2019-01-19T03:26:17.957Z,26.1
2019-01-19T03:27:07.543Z,26.2
2019-01-19T03:27:58.323Z,26.4
2019-01-19T03:28:48.431Z,26.4
2019-01-19T03:29:38.511Z,26.7
2019-01-19T03:30:28.967Z,26.9
2019-01-19T03:31:18.448Z,27.1
2019-01-19T03:32:08.898Z,27.3
2019-01-19T03:32:59.340Z,27.5
2019-01-19T03:33:48.428Z,27.7
2019-01-19T03:34:38.247Z,27.9
2019-01-19T03:35:28.843Z,28
2019-01-19T03:36:18.868Z,28.1
2019-01-19T03:37:09.235Z,28.3
2019-01-19T03:37:58.197Z,28.4
2019-01-19T03:38:49.065Z,28.5
2019-01-19T03:39:38.541Z,28.6
2019-01-19T03:40:29.270Z,28.7
2019-01-19T03:41:18.670Z,28.8
2019-01-19T03:42:08.531Z,28.9
2019-01-19T03:42:58.659Z,28.9
2019-01-19T03:43:49.140Z,29.1
2019-01-19T03:44:38.974Z,29.1
2019-01-19T03:45:29.831Z,29.2
2019-01-19T03:46:19.338Z,29.3
2019-01-19T03:47:08.492Z,29.3
2019-01-19T03:47:59.157Z,29.4
2019-01-19T03:48:49.701Z,29.4
2019-01-19T03:49:39.487Z,29.5
2019-01-19T03:50:29.549Z,29.5
2019-01-19T03:51:19.882Z,29.5
2019-01-19T03:52:08.843Z,29.4
2019-01-19T03:53:00.000Z,29.2
2019-01-19T03:53:50.105Z,29.1
2019-01-19T03:54:42.028Z,28.9
2019-01-19T03:55:30.246Z,28.8
2019-01-19T03:56:20.211Z,28.6
2019-01-19T03:57:10.591Z,28.5
2019-01-19T03:58:00.367Z,28.3
2019-01-19T03:58:49.324Z,28.2
2019-01-19T03:59:39.706Z,28.1
2019-01-19T04:00:30.026Z,27.9
2019-01-19T04:01:20.191Z,26.9
2019-01-19T04:02:10.161Z,26.3
2019-01-19T04:03:00.452Z,26.3
2019-01-19T04:03:49.497Z,26.3
2019-01-19T04:04:39.998Z,26.4
2019-01-19T04:05:30.596Z,26.5
2019-01-19T04:06:21.561Z,26.7
2019-01-19T04:07:10.703Z,26.9
2019-01-19T04:08:00.725Z,27.1
2019-01-19T04:08:51.493Z,27.3
2019-01-19T04:09:40.576Z,27.4
2019-01-19T04:10:30.799Z,27.6
2019-01-19T04:11:20.952Z,27.8
2019-01-19T04:12:10.720Z,27.9
2019-01-19T04:13:01.443Z,28.1
2019-01-19T04:13:50.904Z,28.1
2019-01-19T04:14:40.767Z,28.3
2019-01-19T04:15:31.280Z,28.4
2019-01-19T04:16:21.040Z,28.4
2019-01-19T04:17:11.045Z,28.6
2019-01-19T04:18:01.781Z,28.6
2019-01-19T04:18:50.896Z,28.7
2019-01-19T04:19:41.570Z,28.8
2019-01-19T04:20:31.915Z,28.6
2019-01-19T04:21:21.250Z,28.5
2019-01-19T04:23:01.818Z,27.1
2019-01-19T04:23:51.550Z,26.3
2019-01-19T04:24:41.986Z,25.3
2019-01-19T04:25:31.853Z,24.4
2019-01-19T04:26:22.600Z,24.3
2019-01-19T04:27:12.606Z,24.5
2019-01-19T04:28:02.158Z,25.1
2019-01-19T04:28:52.249Z,25.7
2019-01-19T04:29:42.248Z,26.1
2019-01-19T04:30:32.259Z,26.4
2019-01-19T04:31:21.553Z,26.6
2019-01-19T04:32:12.525Z,26.8
2019-01-19T04:33:02.187Z,27
2019-01-19T04:33:52.818Z,27.3
2019-01-19T04:34:42.868Z,27.4
2019-01-19T04:35:33.228Z,27.6
2019-01-19T04:37:12.407Z,28
2019-01-19T04:38:02.534Z,28.1
2019-01-19T04:38:53.186Z,28.2
2019-01-19T04:39:43.238Z,28.3
2019-01-19T04:40:32.997Z,28.4
2019-01-19T04:41:23.134Z,28.6
2019-01-19T04:42:13.482Z,28.7
2019-01-19T04:43:03.698Z,28.8
2019-01-19T04:43:53.198Z,28.8
2019-01-19T04:44:43.571Z,28.9
2019-01-19T04:45:33.911Z,29.1
2019-01-19T04:46:22.686Z,29.1
2019-01-19T04:47:13.449Z,29.2
2019-01-19T04:48:03.841Z,29.3
2019-01-19T04:48:54.078Z,29.3
2019-01-19T04:49:44.177Z,29.4
2019-01-19T04:50:34.228Z,29.5
2019-01-19T04:51:24.379Z,29.6
2019-01-19T04:52:13.773Z,29.6
2019-01-19T04:53:03.350Z,29.4
2019-01-19T04:53:53.923Z,29.3
2019-01-19T04:54:43.995Z,29.1
2019-01-19T04:55:34.018Z,29
2019-01-19T04:56:24.607Z,28.9
2019-01-19T04:57:14.434Z,28.7
2019-01-19T04:58:04.434Z,28.5
2019-01-19T04:58:53.961Z,28.4
2019-01-19T04:59:44.821Z,28.3
2019-01-19T05:00:33.942Z,28.1
2019-01-19T05:01:24.985Z,27.4
2019-01-19T05:02:14.481Z,26.5
2019-01-19T05:03:04.606Z,26.1
2019-01-19T05:03:54.362Z,26.3
2019-01-19T05:04:44.657Z,26.4
2019-01-19T05:05:34.509Z,26.4
2019-01-19T05:06:35.146Z,26.7
2019-01-19T05:07:14.906Z,26.9
2019-01-19T05:08:04.069Z,27.1
2019-01-19T05:08:54.961Z,27.2
2019-01-19T05:09:44.994Z,27.4
2019-01-19T05:10:35.073Z,27.6
2019-01-19T05:11:25.207Z,27.8
2019-01-19T05:12:14.619Z,27.9
2019-01-19T05:13:05.186Z,28.1
2019-01-19T05:13:55.560Z,28.2
2019-01-19T05:14:45.327Z,28.3
2019-01-19T05:15:35.131Z,28.4
2019-01-19T05:16:25.660Z,28.5
2019-01-19T05:17:15.483Z,28.6
2019-01-19T05:18:04.530Z,28.6
2019-01-19T05:18:54.528Z,28.7
2019-01-19T05:19:45.713Z,28.8
2019-01-19T05:20:34.698Z,28.9
2019-01-19T05:21:24.862Z,28.9
2019-01-19T05:22:15.160Z,29
2019-01-19T05:23:05.930Z,29.1
2019-01-19T05:23:56.174Z,29.1
2019-01-19T05:24:45.232Z,29.2
2019-01-19T05:25:35.144Z,29.3
2019-01-19T05:26:25.359Z,29.3
2019-01-19T05:27:15.647Z,29.4
2019-01-19T05:28:06.019Z,29.4
2019-01-19T05:28:56.530Z,29.4
2019-01-19T05:29:46.592Z,29.5
2019-01-19T05:30:36.044Z,29.5
2019-01-19T05:31:26.451Z,29.6
2019-01-19T05:32:16.724Z,29.6
2019-01-19T05:33:05.993Z,29.6
2019-01-19T05:33:56.306Z,29.4
2019-01-19T05:34:46.899Z,29.3
2019-01-19T05:35:36.666Z,29.1
2019-01-19T05:36:26.572Z,28.9
2019-01-19T05:37:16.292Z,28.8
2019-01-19T05:38:08.497Z,28.6
2019-01-19T05:38:56.208Z,28.4
2019-01-19T05:39:47.023Z,28.3
2019-01-19T05:40:36.506Z,28.2
2019-01-19T05:41:27.171Z,28.1
2019-01-19T05:42:17.478Z,26.9
2019-01-19T05:43:06.733Z,26.3
2019-01-19T05:43:57.335Z,26.1
2019-01-19T05:44:48.268Z,26.1
2019-01-19T05:45:37.383Z,26.2
2019-01-19T05:46:30.750Z,26.3
2019-01-19T05:47:17.781Z,26.6
2019-01-19T05:48:08.180Z,26.8
2019-01-19T05:48:57.894Z,26.9
2019-01-19T05:49:47.456Z,27.1
2019-01-19T05:50:37.819Z,27.3
2019-01-19T05:51:27.231Z,27.2
2019-01-19T05:52:17.363Z,27.1
2019-01-19T05:53:07.178Z,27
2019-01-19T05:53:58.029Z,26.9
2019-01-19T05:54:48.075Z,26.8
2019-01-19T05:55:37.763Z,26.6
2019-01-19T05:56:27.497Z,26.4
2019-01-19T05:57:18.266Z,26.3
2019-01-19T05:58:07.723Z,26.2
2019-01-19T05:58:57.495Z,26.1
2019-01-19T05:59:48.574Z,25.9
2019-01-19T06:00:38.711Z,25.8
2019-01-19T06:01:30.683Z,25.7
2019-01-19T06:02:19.082Z,25.6
2019-01-19T06:03:08.899Z,25.5
2019-01-19T06:03:59.207Z,25.4
2019-01-19T06:06:54.959Z,25.1
2019-01-19T06:07:36.301Z,24.9
2019-01-19T06:08:26.954Z,24.8
2019-01-19T06:09:16.517Z,24.8
2019-01-19T06:10:05.715Z,24.6
2019-01-19T06:10:56.509Z,24.5
2019-01-19T06:11:46.943Z,24.4
2019-01-19T06:12:36.611Z,24.3
2019-01-19T06:13:26.477Z,24.2
2019-01-19T06:14:16.724Z,24.1
2019-01-19T06:15:06.273Z,24
2019-01-19T06:15:56.875Z,23.9
2019-01-19T06:16:46.959Z,23.8
2019-01-19T06:17:35.849Z,23.8
2019-01-19T06:18:26.727Z,23.6
2019-01-19T06:19:17.479Z,23.6
2019-01-19T06:20:07.024Z,23.4
2019-01-19T06:20:56.681Z,23.4
2019-01-19T06:21:46.105Z,23.3
2019-01-19T06:22:36.753Z,23.2
2019-01-19T06:23:27.726Z,23.1
2019-01-19T06:24:16.573Z,22.9
2019-01-19T06:25:07.579Z,22.9
2019-01-19T06:25:57.865Z,22.8
2019-01-19T06:26:46.738Z,22.7
2019-01-19T06:27:37.647Z,22.6
2019-01-19T06:28:27.845Z,22.5
2019-01-19T06:29:18.097Z,22.4
2019-01-19T06:30:07.278Z,22.3
2019-01-19T06:30:57.315Z,22.3
2019-01-19T06:31:47.238Z,22.1
2019-01-19T06:32:38.058Z,22.1
2019-01-19T06:33:27.980Z,21.9
2019-01-19T06:34:17.040Z,21.9
2019-01-19T06:35:06.888Z,21.8
2019-01-19T06:35:58.189Z,21.8
2019-01-19T06:36:56.891Z,21.6
2019-01-19T06:37:38.378Z,21.5
2019-01-19T06:38:28.543Z,21.4
2019-01-19T06:39:18.789Z,21.4
2019-01-19T06:40:08.846Z,21.3
2019-01-19T06:40:58.835Z,21.2
2019-01-19T06:42:38.935Z,21.1
2019-01-19T06:43:28.692Z,21
2019-01-19T06:44:18.808Z,20.9
2019-01-19T06:45:08.092Z,20.8
2019-01-19T06:45:58.562Z,20.8
2019-01-19T06:46:49.745Z,20.6
2019-01-19T06:47:38.954Z,20.6
2019-01-19T06:48:28.247Z,20.5
2019-01-19T06:49:18.349Z,20.4
2019-01-19T06:50:09.520Z,20.3
2019-01-19T06:50:59.755Z,20.3
2019-01-19T06:51:48.979Z,20.2
2019-01-19T06:52:38.751Z,20.1
2019-01-19T06:53:29.989Z,20.1
2019-01-19T06:54:18.895Z,19.9
2019-01-19T06:55:09.199Z,19.9
2019-01-19T06:55:59.786Z,19.8
2019-01-19T06:56:49.394Z,19.8
2019-01-19T06:57:39.161Z,19.7
2019-01-19T06:58:31.741Z,19.6
2019-01-19T06:59:26.276Z,19.6
2019-01-19T07:00:09.819Z,19.5
2019-01-19T07:01:00.199Z,19.4
2019-01-19T07:01:49.733Z,19.3
2019-01-19T07:02:39.699Z,19.3
2019-01-19T07:03:30.696Z,19.2
2019-01-19T07:04:19.276Z,19.1
2019-01-19T07:06:47.210Z,18.9
2019-01-19T07:07:36.848Z,18.9
2019-01-19T07:08:28.614Z,18.8
2019-01-19T07:09:16.970Z,18.8
2019-01-19T07:10:57.338Z,18.6
2019-01-19T07:11:47.195Z,18.6
2019-01-19T07:12:37.438Z,18.5
2019-01-19T07:13:26.695Z,18.4
2019-01-19T07:14:17.005Z,18.4
2019-01-19T07:15:07.395Z,18.3
2019-01-19T07:15:57.000Z,18.3
2019-01-19T07:16:46.725Z,18.3
2019-01-19T07:17:37.807Z,18.2
2019-01-19T07:18:27.327Z,18.1
2019-01-19T07:19:17.884Z,18.1
2019-01-19T07:20:06.639Z,18
2019-01-19T07:20:57.038Z,17.9
2019-01-19T07:21:48.145Z,17.9
2019-01-19T07:22:37.878Z,17.8
2019-01-19T07:23:27.928Z,17.8
2019-01-19T07:24:18.305Z,17.7
2019-01-19T07:25:07.956Z,17.6
2019-01-19T07:25:57.864Z,17.6
2019-01-19T07:26:47.867Z,17.6
2019-01-19T07:27:37.915Z,17.5
2019-01-19T07:28:27.759Z,17.4
2019-01-19T07:29:18.582Z,17.4
2019-01-19T07:30:08.400Z,17.3
2019-01-19T07:30:58.382Z,17.3
2019-01-19T07:31:48.785Z,17.3
2019-01-19T07:32:38.232Z,17.2
2019-01-19T07:33:28.416Z,17.1
2019-01-19T07:34:17.819Z,17.1
2019-01-19T07:35:07.783Z,17.1
2019-01-19T07:36:48.143Z,16.9
2019-01-19T07:37:38.642Z,16.9
2019-01-19T07:38:28.534Z,16.9
2019-01-19T07:39:19.236Z,16.8
2019-01-19T07:40:09.086Z,16.8
2019-01-19T07:40:58.046Z,16.8
2019-01-19T07:41:48.963Z,16.7
2019-01-19T07:42:40.529Z,16.6
2019-01-19T07:43:29.001Z,16.6
2019-01-19T07:44:19.098Z,16.6
2019-01-19T07:45:09.768Z,16.5
2019-01-19T07:45:59.208Z,16.4
2019-01-19T07:46:57.160Z,16.4
2019-01-19T07:47:40.967Z,16.4
2019-01-19T07:48:29.574Z,16.3
2019-01-19T07:49:19.900Z,16.3
2019-01-19T07:50:09.800Z,16.3
2019-01-19T07:50:59.953Z,16.2
2019-01-19T07:51:50.103Z,16.2
2019-01-19T07:52:40.241Z,16.1
2019-01-19T07:53:29.937Z,16.1
2019-01-19T07:54:19.707Z,16.1
2019-01-19T07:55:10.037Z,16
2019-01-19T07:56:00.126Z,16
2019-01-19T07:56:50.150Z,15.9
2019-01-19T07:57:40.077Z,15.9
2019-01-19T07:58:30.515Z,15.8
2019-01-19T07:59:21.760Z,15.8
2019-01-19T08:00:10.072Z,15.8
2019-01-19T08:01:00.427Z,15.8
2019-01-19T08:01:50.210Z,15.7
2019-01-19T08:02:39.409Z,15.6
2019-01-19T08:03:30.591Z,15.6
2019-01-19T08:04:20.917Z,15.6
2019-01-19T08:05:11.693Z,15.6
2019-01-19T08:06:01.047Z,15.5
2019-01-19T08:06:52.180Z,15.5
2019-01-19T08:07:40.364Z,15.4
2019-01-19T08:08:32.572Z,15.4
2019-01-19T08:09:20.717Z,15.4
2019-01-19T08:10:10.772Z,15.3
2019-01-19T08:11:00.809Z,15.3
2019-01-19T08:11:51.471Z,15.3
2019-01-19T08:12:40.942Z,15.3
2019-01-19T08:13:31.396Z,15.2
2019-01-19T08:14:21.084Z,15.2
2019-01-19T08:15:11.406Z,15.1
2019-01-19T08:16:01.496Z,15.1
2019-01-19T08:16:51.224Z,15.1
2019-01-19T08:17:41.561Z,15.1
2019-01-19T08:18:31.621Z,15
2019-01-19T08:19:21.399Z,15
2019-01-19T08:20:11.774Z,14.9
2019-01-19T08:21:01.011Z,14.9
2019-01-19T08:21:51.624Z,14.9
2019-01-19T08:22:41.468Z,14.9
2019-01-19T08:23:33.251Z,14.9
2019-01-19T08:24:21.528Z,14.8
2019-01-19T08:25:11.584Z,14.8
2019-01-19T08:26:02.396Z,14.8
2019-01-19T08:26:51.988Z,14.8
2019-01-19T08:27:41.711Z,14.7
2019-01-19T08:28:32.598Z,14.6
2019-01-19T08:29:24.238Z,14.6
2019-01-19T08:30:12.418Z,14.6
2019-01-19T08:31:02.467Z,14.5
2019-01-19T08:31:52.345Z,14.5
2019-01-19T08:32:42.602Z,14.4
2019-01-19T08:33:32.415Z,14.4
2019-01-19T08:34:22.710Z,14.4
2019-01-19T08:35:12.777Z,14.3
2019-01-19T08:36:01.955Z,14.3
2019-01-19T08:36:53.118Z,14.3
2019-01-19T08:37:43.212Z,14.3
2019-01-19T08:38:32.680Z,14.3
2019-01-19T08:39:24.038Z,14.3
2019-01-19T08:40:13.346Z,14.2
2019-01-19T08:41:04.457Z,14.2
2019-01-19T08:41:53.492Z,14.2
2019-01-19T08:42:42.960Z,14.1
2019-01-19T08:43:33.304Z,14.1
2019-01-19T08:44:22.887Z,14.1
2019-01-19T08:45:13.162Z,14.1
2019-01-19T08:46:04.797Z,14
2019-01-19T08:46:53.600Z,14
2019-01-19T08:47:43.584Z,13.9
2019-01-19T08:48:33.954Z,13.9
2019-01-19T08:49:23.762Z,13.9
2019-01-19T08:50:14.058Z,13.9
2019-01-19T08:51:04.114Z,13.9
2019-01-19T08:51:54.164Z,13.9
2019-01-19T08:52:44.209Z,13.8
2019-01-19T08:53:34.256Z,13.8
2019-01-19T08:54:24.111Z,13.8
2019-01-19T08:55:14.110Z,13.8
2019-01-19T08:56:04.139Z,13.8
2019-01-19T08:56:54.211Z,13.7
2019-01-19T08:57:44.541Z,13.7
2019-01-19T08:58:34.052Z,13.7
2019-01-19T08:59:24.636Z,13.6
2019-01-19T09:00:13.875Z,13.6
2019-01-19T09:01:04.766Z,13.6
2019-01-19T09:01:54.918Z,13.6
2019-01-19T09:02:44.901Z,13.6
2019-01-19T09:03:34.383Z,13.6
2019-01-19T09:04:24.765Z,13.6
2019-01-19T09:05:14.218Z,13.5
2019-01-19T09:06:04.878Z,13.5
2019-01-19T09:06:55.156Z,13.5
2019-01-19T09:07:44.468Z,13.4
2019-01-19T09:08:35.308Z,13.4
2019-01-19T09:09:25.105Z,13.4
2019-01-19T09:10:15.108Z,13.4
2019-01-19T09:11:04.952Z,13.4
2019-01-19T09:11:55.548Z,13.4
2019-01-19T09:12:45.055Z,13.4
2019-01-19T09:13:35.960Z,13.4
2019-01-19T09:14:25.642Z,13.3
2019-01-19T09:15:15.462Z,13.3
2019-01-19T09:16:05.775Z,13.3
2019-01-19T09:16:55.614Z,13.3
2019-01-19T09:17:45.897Z,13.3
2019-01-19T09:18:37.347Z,13.3
2019-01-19T09:19:25.757Z,13.3
2019-01-19T09:20:15.762Z,13.3
2019-01-19T09:21:05.562Z,13.2
2019-01-19T09:21:56.691Z,13.2
2019-01-19T09:22:46.019Z,13.2
2019-01-19T09:23:35.495Z,13.1
2019-01-19T09:24:26.392Z,13.1
2019-01-19T09:25:15.888Z,13.1
2019-01-19T09:26:06.219Z,13.1
2019-01-19T09:26:55.668Z,13.1
2019-01-19T09:27:45.818Z,13.1
2019-01-19T09:28:37.847Z,13.1
2019-01-19T09:29:25.867Z,13.1
2019-01-19T09:30:16.200Z,13.1
2019-01-19T09:31:06.304Z,13
2019-01-19T09:31:56.345Z,13
2019-01-19T09:32:46.686Z,13
2019-01-19T09:33:36.709Z,13
2019-01-19T09:34:26.566Z,13
2019-01-19T09:35:16.806Z,13
2019-01-19T09:36:07.141Z,12.9
2019-01-19T09:36:56.911Z,12.9
2019-01-19T09:37:52.007Z,12.9
2019-01-19T09:38:37.091Z,12.9
2019-01-19T09:39:27.365Z,12.9
2019-01-19T09:40:18.794Z,12.9
2019-01-19T09:41:06.943Z,12.9
2019-01-19T09:41:57.277Z,12.9
2019-01-19T09:42:47.044Z,12.9
2019-01-19T09:43:37.447Z,12.9
2019-01-19T09:44:27.448Z,12.8
2019-01-19T09:45:17.754Z,12.8
2019-01-19T09:46:07.818Z,12.8
2019-01-19T09:46:57.050Z,12.8
2019-01-19T09:47:47.698Z,12.8
2019-01-19T09:48:37.978Z,12.8
2019-01-19T09:49:27.860Z,12.8
2019-01-19T09:50:17.809Z,12.8
2019-01-19T09:51:07.880Z,12.8
2019-01-19T09:51:57.663Z,12.8
2019-01-19T09:52:48.388Z,12.8
2019-01-19T09:53:38.047Z,12.8
2019-01-19T09:54:29.808Z,12.8
2019-01-19T09:55:17.662Z,12.7
2019-01-19T09:56:08.597Z,12.7
2019-01-19T09:56:58.572Z,12.7
2019-01-19T09:57:48.367Z,12.7
2019-01-19T09:58:38.654Z,12.7
2019-01-19T09:59:28.717Z,12.7
2019-01-19T10:00:18.539Z,12.6
2019-01-19T10:01:08.620Z,12.7
2019-01-19T10:01:58.927Z,12.6
2019-01-19T10:02:48.451Z,12.6
2019-01-19T10:03:39.009Z,12.6
2019-01-19T10:04:28.557Z,12.6
2019-01-19T10:05:18.860Z,12.6
2019-01-19T10:07:53.590Z,12.6
2019-01-19T10:08:36.099Z,12.6
2019-01-19T10:09:26.200Z,12.6
2019-01-19T10:10:16.571Z,12.6
2019-01-19T10:11:07.124Z,12.6
2019-01-19T10:11:56.949Z,12.6
2019-01-19T10:12:46.723Z,12.6
2019-01-19T10:13:36.801Z,12.6
2019-01-19T10:14:27.158Z,12.5
2019-01-19T10:15:17.224Z,12.5
2019-01-19T10:16:06.361Z,12.5
2019-01-19T10:16:57.241Z,12.5
2019-01-19T10:17:47.028Z,12.5
2019-01-19T10:18:37.129Z,12.5
2019-01-19T10:19:27.137Z,12.5
2019-01-19T10:20:17.518Z,12.4
2019-01-19T10:21:07.858Z,12.4
2019-01-19T10:21:57.853Z,12.4
2019-01-19T10:22:47.983Z,12.4
2019-01-19T10:23:37.403Z,12.4
2019-01-19T10:24:28.053Z,12.4
2019-01-19T10:25:17.816Z,12.4
2019-01-19T10:26:07.890Z,12.4
2019-01-19T10:26:57.678Z,12.4
2019-01-19T10:27:47.417Z,12.4
2019-01-19T10:28:38.308Z,12.4
2019-01-19T10:29:27.080Z,12.4
2019-01-19T10:30:17.938Z,12.4
2019-01-19T10:31:08.230Z,12.4
2019-01-19T10:31:57.987Z,12.4
2019-01-19T10:32:47.568Z,12.4
2019-01-19T10:33:38.155Z,12.4
2019-01-19T10:34:28.232Z,12.4
2019-01-19T10:35:17.733Z,12.4
2019-01-19T10:36:07.695Z,12.3
2019-01-19T10:36:58.330Z,12.3
2019-01-19T10:37:55.609Z,12.3
2019-01-19T10:38:38.002Z,12.3
2019-01-19T10:39:28.155Z,12.3
2019-01-19T10:40:18.565Z,12.3
2019-01-19T10:41:08.940Z,12.3
2019-01-19T10:41:57.839Z,12.3
2019-01-19T10:42:48.527Z,12.3
2019-01-19T10:43:39.082Z,12.3
2019-01-19T10:44:28.702Z,12.3
2019-01-19T10:45:19.475Z,12.3
2019-01-19T10:46:08.943Z,12.3
2019-01-19T10:46:58.771Z,12.3
2019-01-19T10:47:51.081Z,12.3
2019-01-19T10:48:39.386Z,12.3
2019-01-19T10:49:29.174Z,12.3
2019-01-19T10:50:19.566Z,12.3
2019-01-19T10:51:09.577Z,12.3
2019-01-19T10:52:06.159Z,12.3
2019-01-19T10:52:49.719Z,12.3
2019-01-19T10:53:39.719Z,12.2
2019-01-19T10:54:29.841Z,12.2
2019-01-19T10:55:18.513Z,12.2
2019-01-19T10:56:09.506Z,12.2
2019-01-19T10:56:59.483Z,12.2
2019-01-19T10:57:48.988Z,12.2
2019-01-19T10:58:39.308Z,12.2
2019-01-19T10:59:29.152Z,12.2
2019-01-19T11:00:19.976Z,12.2
2019-01-19T11:01:09.489Z,12.2
2019-01-19T11:02:00.038Z,12.2
2019-01-19T11:02:50.146Z,12.2
2019-01-19T11:03:40.403Z,12.1
2019-01-19T11:04:29.909Z,12.2
2019-01-19T11:05:20.558Z,12.1
2019-01-19T11:06:10.959Z,12.1
2019-01-19T11:07:00.648Z,12.1
2019-01-19T11:07:50.416Z,12.1
2019-01-19T11:08:40.496Z,12.1
2019-01-19T11:09:30.555Z,12.1
2019-01-19T11:10:20.991Z,12.1
2019-01-19T11:11:11.202Z,12.1
2019-01-19T11:12:01.293Z,12.1
2019-01-19T11:12:50.762Z,12.1
2019-01-19T11:13:40.783Z,12.1
2019-01-19T11:14:30.588Z,12.1
2019-01-19T11:15:21.270Z,12.1
2019-01-19T11:16:11.265Z,12.1
2019-01-19T11:17:00.773Z,12.1
2019-01-19T11:17:50.361Z,12.1
2019-01-19T11:18:40.676Z,12.1
2019-01-19T11:19:31.215Z,12.1
2019-01-19T11:20:21.884Z,12.1
2019-01-19T11:21:11.098Z,12.1
2019-01-19T11:22:01.394Z,12.1